sensor_id;sensor_type;location;lat;lon;timestamp;P1;durP1;ratioP1;P2;durP2;ratioP2
35150;SDS011;55720;51.972;4.624;2023-06-24T00:02:09;3.03;;;2.55;;
35150;SDS011;55720;51.972;4.624;2023-06-24T00:04:34;2.25;;;2.03;;
35150;SDS011;55720;51.972;4.624;2023-06-24T00:07:00;2.78;;;2.10;;
35150;SDS011;55720;51.972;4.624;2023-06-24T00:09:26;3.85;;;2.20;;
35150;SDS011;55720;51.972;4.624;2023-06-24T00:11:53;3.88;;;2.33;;
35150;SDS011;55720;51.972;4.624;2023-06-24T00:14:19;3.55;;;2.58;;
35150;SDS011;55720;51.972;4.624;2023-06-24T00:16:46;4.60;;;2.10;;
35150;SDS011;55720;51.972;4.624;2023-06-24T00:19:16;5.10;;;2.80;;
35150;SDS011;55720;51.972;4.624;2023-06-24T00:21:44;2.55;;;2.35;;
35150;SDS011;55720;51.972;4.624;2023-06-24T00:24:10;3.65;;;3.08;;
35150;SDS011;55720;51.972;4.624;2023-06-24T00:26:35;3.15;;;2.85;;
35150;SDS011;55720;51.972;4.624;2023-06-24T00:29:01;2.97;;;2.58;;
35150;SDS011;55720;51.972;4.624;2023-06-24T00:31:26;7.28;;;3.22;;
35150;SDS011;55720;51.972;4.624;2023-06-24T00:33:51;4.07;;;3.58;;
35150;SDS011;55720;51.972;4.624;2023-06-24T00:36:17;4.55;;;3.33;;
35150;SDS011;55720;51.972;4.624;2023-06-24T00:38:43;4.28;;;3.70;;
35150;SDS011;55720;51.972;4.624;2023-06-24T00:41:09;4.30;;;3.90;;
35150;SDS011;55720;51.972;4.624;2023-06-24T00:43:34;4.20;;;3.50;;
35150;SDS011;55720;51.972;4.624;2023-06-24T00:46:00;3.22;;;2.92;;
35150;SDS011;55720;51.972;4.624;2023-06-24T00:48:26;4.00;;;3.38;;
35150;SDS011;55720;51.972;4.624;2023-06-24T00:50:51;4.00;;;3.20;;
35150;SDS011;55720;51.972;4.624;2023-06-24T00:53:17;4.25;;;3.13;;
35150;SDS011;55720;51.972;4.624;2023-06-24T00:55:43;3.47;;;3.17;;
35150;SDS011;55720;51.972;4.624;2023-06-24T00:58:10;4.97;;;3.28;;
35150;SDS011;55720;51.972;4.624;2023-06-24T01:00:41;3.50;;;3.15;;
35150;SDS011;55720;51.972;4.624;2023-06-24T01:03:09;3.50;;;3.17;;
35150;SDS011;55720;51.972;4.624;2023-06-24T01:05:39;3.10;;;2.85;;
35150;SDS011;55720;51.972;4.624;2023-06-24T01:08:06;4.65;;;3.10;;
35150;SDS011;55720;51.972;4.624;2023-06-24T01:10:32;3.05;;;2.75;;
35150;SDS011;55720;51.972;4.624;2023-06-24T01:12:57;4.28;;;3.30;;
35150;SDS011;55720;51.972;4.624;2023-06-24T01:15:23;5.85;;;2.78;;
35150;SDS011;55720;51.972;4.624;2023-06-24T01:20:29;3.20;;;2.90;;
35150;SDS011;55720;51.972;4.624;2023-06-24T01:36:19;6.10;;;3.40;;
35150;SDS011;55720;51.972;4.624;2023-06-24T01:38:49;3.30;;;3.00;;
35150;SDS011;55720;51.972;4.624;2023-06-24T01:41:21;4.47;;;3.10;;
35150;SDS011;55720;51.972;4.624;2023-06-24T01:43:50;6.45;;;3.55;;
35150;SDS011;55720;51.972;4.624;2023-06-24T01:46:19;3.60;;;3.05;;
35150;SDS011;55720;51.972;4.624;2023-06-24T01:48:47;6.65;;;3.00;;
35150;SDS011;55720;51.972;4.624;2023-06-24T01:51:17;5.25;;;3.17;;
35150;SDS011;55720;51.972;4.624;2023-06-24T01:53:52;5.20;;;3.33;;
35150;SDS011;55720;51.972;4.624;2023-06-24T01:56:20;4.47;;;3.17;;
35150;SDS011;55720;51.972;4.624;2023-06-24T01:58:48;5.30;;;3.50;;
35150;SDS011;55720;51.972;4.624;2023-06-24T02:01:16;6.20;;;3.60;;
35150;SDS011;55720;51.972;4.624;2023-06-24T02:03:42;4.20;;;3.80;;
35150;SDS011;55720;51.972;4.624;2023-06-24T02:06:08;4.97;;;3.28;;
35150;SDS011;55720;51.972;4.624;2023-06-24T02:08:35;4.30;;;3.58;;
35150;SDS011;55720;51.972;4.624;2023-06-24T02:11:03;4.28;;;3.17;;
35150;SDS011;55720;51.972;4.624;2023-06-24T02:13:29;5.35;;;3.38;;
35150;SDS011;55720;51.972;4.624;2023-06-24T02:16:00;5.00;;;3.13;;
35150;SDS011;55720;51.972;4.624;2023-06-24T02:18:31;4.60;;;3.40;;
35150;SDS011;55720;51.972;4.624;2023-06-24T02:20:58;6.30;;;3.67;;
35150;SDS011;55720;51.972;4.624;2023-06-24T02:23:25;4.80;;;3.20;;
35150;SDS011;55720;51.972;4.624;2023-06-24T02:25:53;7.75;;;3.47;;
35150;SDS011;55720;51.972;4.624;2023-06-24T02:28:18;3.35;;;3.05;;
35150;SDS011;55720;51.972;4.624;2023-06-24T02:30:45;4.90;;;3.70;;
35150;SDS011;55720;51.972;4.624;2023-06-24T02:33:11;5.28;;;3.42;;
35150;SDS011;55720;51.972;4.624;2023-06-24T02:35:37;5.13;;;3.58;;
35150;SDS011;55720;51.972;4.624;2023-06-24T02:38:03;6.13;;;3.88;;
35150;SDS011;55720;51.972;4.624;2023-06-24T02:40:29;5.40;;;3.95;;
35150;SDS011;55720;51.972;4.624;2023-06-24T02:42:54;4.38;;;3.75;;
35150;SDS011;55720;51.972;4.624;2023-06-24T02:45:20;4.93;;;3.88;;
35150;SDS011;55720;51.972;4.624;2023-06-24T02:47:46;5.78;;;3.75;;
35150;SDS011;55720;51.972;4.624;2023-06-24T02:50:14;4.00;;;3.60;;
35150;SDS011;55720;51.972;4.624;2023-06-24T02:52:40;4.50;;;3.58;;
35150;SDS011;55720;51.972;4.624;2023-06-24T02:55:05;5.00;;;3.95;;
35150;SDS011;55720;51.972;4.624;2023-06-24T02:57:32;6.05;;;3.72;;
35150;SDS011;55720;51.972;4.624;2023-06-24T03:00:01;5.18;;;3.85;;
35150;SDS011;55720;51.972;4.624;2023-06-24T03:02:28;6.65;;;4.50;;
35150;SDS011;55720;51.972;4.624;2023-06-24T03:04:55;4.30;;;3.90;;
35150;SDS011;55720;51.972;4.624;2023-06-24T03:07:22;5.45;;;4.55;;
35150;SDS011;55720;51.972;4.624;2023-06-24T03:09:48;5.45;;;3.95;;
35150;SDS011;55720;51.972;4.624;2023-06-24T03:12:13;4.13;;;3.72;;
35150;SDS011;55720;51.972;4.624;2023-06-24T03:14:39;5.45;;;4.30;;
35150;SDS011;55720;51.972;4.624;2023-06-24T03:17:04;7.53;;;4.22;;
35150;SDS011;55720;51.972;4.624;2023-06-24T03:19:29;5.18;;;4.40;;
35150;SDS011;55720;51.972;4.624;2023-06-24T03:21:55;10.05;;;4.35;;
35150;SDS011;55720;51.972;4.624;2023-06-24T03:24:20;4.63;;;4.18;;
35150;SDS011;55720;51.972;4.624;2023-06-24T03:26:46;5.65;;;3.97;;
35150;SDS011;55720;51.972;4.624;2023-06-24T03:29:11;6.57;;;3.83;;
35150;SDS011;55720;51.972;4.624;2023-06-24T03:31:37;6.30;;;4.35;;
35150;SDS011;55720;51.972;4.624;2023-06-24T03:34:03;5.72;;;4.45;;
35150;SDS011;55720;51.972;4.624;2023-06-24T03:36:28;6.13;;;4.30;;
35150;SDS011;55720;51.972;4.624;2023-06-24T03:38:54;7.07;;;4.57;;
35150;SDS011;55720;51.972;4.624;2023-06-24T03:41:19;7.18;;;4.75;;
35150;SDS011;55720;51.972;4.624;2023-06-24T03:43:44;5.53;;;4.43;;
35150;SDS011;55720;51.972;4.624;2023-06-24T03:46:10;4.85;;;4.22;;
35150;SDS011;55720;51.972;4.624;2023-06-24T03:48:36;9.75;;;4.40;;
35150;SDS011;55720;51.972;4.624;2023-06-24T03:51:02;5.90;;;4.28;;
35150;SDS011;55720;51.972;4.624;2023-06-24T03:53:27;6.40;;;4.20;;
35150;SDS011;55720;51.972;4.624;2023-06-24T03:55:52;6.25;;;4.13;;
35150;SDS011;55720;51.972;4.624;2023-06-24T03:58:18;7.40;;;4.70;;
35150;SDS011;55720;51.972;4.624;2023-06-24T04:00:46;6.82;;;4.32;;
35150;SDS011;55720;51.972;4.624;2023-06-24T04:03:14;4.70;;;3.40;;
35150;SDS011;55720;51.972;4.624;2023-06-24T04:05:39;4.97;;;4.30;;
35150;SDS011;55720;51.972;4.624;2023-06-24T04:08:05;5.45;;;3.38;;
35150;SDS011;55720;51.972;4.624;2023-06-24T04:10:31;3.40;;;3.10;;
35150;SDS011;55720;51.972;4.624;2023-06-24T04:12:57;3.58;;;3.28;;
35150;SDS011;55720;51.972;4.624;2023-06-24T04:15:22;3.45;;;3.10;;
35150;SDS011;55720;51.972;4.624;2023-06-24T04:17:48;5.60;;;3.50;;
35150;SDS011;55720;51.972;4.624;2023-06-24T04:20:14;4.63;;;3.30;;
35150;SDS011;55720;51.972;4.624;2023-06-24T04:22:39;4.07;;;3.17;;
35150;SDS011;55720;51.972;4.624;2023-06-24T04:25:06;5.68;;;3.35;;
35150;SDS011;55720;51.972;4.624;2023-06-24T04:27:32;4.00;;;3.60;;
35150;SDS011;55720;51.972;4.624;2023-06-24T04:29:58;6.75;;;3.55;;
35150;SDS011;55720;51.972;4.624;2023-06-24T04:32:24;6.28;;;3.58;;
35150;SDS011;55720;51.972;4.624;2023-06-24T04:34:50;3.33;;;2.83;;
35150;SDS011;55720;51.972;4.624;2023-06-24T04:37:15;5.13;;;3.45;;
35150;SDS011;55720;51.972;4.624;2023-06-24T04:39:41;3.47;;;3.17;;
35150;SDS011;55720;51.972;4.624;2023-06-24T04:42:08;3.88;;;3.00;;
35150;SDS011;55720;51.972;4.624;2023-06-24T04:44:33;3.45;;;3.15;;
35150;SDS011;55720;51.972;4.624;2023-06-24T04:46:58;5.03;;;3.13;;
35150;SDS011;55720;51.972;4.624;2023-06-24T04:49:24;3.13;;;2.55;;
35150;SDS011;55720;51.972;4.624;2023-06-24T04:51:49;3.45;;;3.15;;
35150;SDS011;55720;51.972;4.624;2023-06-24T04:54:14;3.53;;;2.83;;
35150;SDS011;55720;51.972;4.624;2023-06-24T04:56:40;4.05;;;2.83;;
35150;SDS011;55720;51.972;4.624;2023-06-24T04:59:05;3.72;;;2.55;;
35150;SDS011;55720;51.972;4.624;2023-06-24T05:01:31;2.92;;;2.70;;
35150;SDS011;55720;51.972;4.624;2023-06-24T05:03:56;3.20;;;2.53;;
35150;SDS011;55720;51.972;4.624;2023-06-24T05:06:21;4.38;;;2.80;;
35150;SDS011;55720;51.972;4.624;2023-06-24T05:08:47;8.93;;;2.90;;
35150;SDS011;55720;51.972;4.624;2023-06-24T05:11:12;3.72;;;3.15;;
35150;SDS011;55720;51.972;4.624;2023-06-24T05:13:37;4.53;;;2.90;;
35150;SDS011;55720;51.972;4.624;2023-06-24T05:16:03;3.30;;;2.88;;
35150;SDS011;55720;51.972;4.624;2023-06-24T05:18:28;3.30;;;3.00;;
35150;SDS011;55720;51.972;4.624;2023-06-24T05:20:53;7.72;;;3.40;;
35150;SDS011;55720;51.972;4.624;2023-06-24T05:23:19;3.30;;;3.00;;
35150;SDS011;55720;51.972;4.624;2023-06-24T05:25:44;3.97;;;3.03;;
35150;SDS011;55720;51.972;4.624;2023-06-24T05:28:10;4.50;;;3.10;;
35150;SDS011;55720;51.972;4.624;2023-06-24T05:30:35;2.90;;;2.67;;
35150;SDS011;55720;51.972;4.624;2023-06-24T05:33:00;4.10;;;3.13;;
35150;SDS011;55720;51.972;4.624;2023-06-24T05:35:26;5.38;;;3.17;;
35150;SDS011;55720;51.972;4.624;2023-06-24T05:37:51;4.43;;;3.47;;
35150;SDS011;55720;51.972;4.624;2023-06-24T05:40:16;4.10;;;3.30;;
35150;SDS011;55720;51.972;4.624;2023-06-24T05:42:42;5.35;;;3.80;;
35150;SDS011;55720;51.972;4.624;2023-06-24T05:45:07;3.53;;;3.05;;
35150;SDS011;55720;51.972;4.624;2023-06-24T05:47:33;4.95;;;3.60;;
35150;SDS011;55720;51.972;4.624;2023-06-24T05:49:58;5.93;;;3.05;;
35150;SDS011;55720;51.972;4.624;2023-06-24T05:52:24;3.42;;;3.05;;
35150;SDS011;55720;51.972;4.624;2023-06-24T05:54:49;3.08;;;2.88;;
35150;SDS011;55720;51.972;4.624;2023-06-24T05:57:15;3.55;;;3.25;;
35150;SDS011;55720;51.972;4.624;2023-06-24T05:59:40;3.95;;;3.50;;
35150;SDS011;55720;51.972;4.624;2023-06-24T06:02:06;4.10;;;3.70;;
35150;SDS011;55720;51.972;4.624;2023-06-24T06:04:31;5.40;;;3.63;;
35150;SDS011;55720;51.972;4.624;2023-06-24T06:06:57;3.97;;;3.63;;
35150;SDS011;55720;51.972;4.624;2023-06-24T06:09:22;7.25;;;3.65;;
35150;SDS011;55720;51.972;4.624;2023-06-24T06:11:48;4.22;;;3.47;;
35150;SDS011;55720;51.972;4.624;2023-06-24T06:14:13;6.18;;;3.97;;
35150;SDS011;55720;51.972;4.624;2023-06-24T06:16:39;4.28;;;3.67;;
35150;SDS011;55720;51.972;4.624;2023-06-24T06:19:04;6.07;;;3.70;;
35150;SDS011;55720;51.972;4.624;2023-06-24T06:21:30;4.40;;;3.33;;
35150;SDS011;55720;51.972;4.624;2023-06-24T06:23:55;4.43;;;3.30;;
35150;SDS011;55720;51.972;4.624;2023-06-24T06:26:21;6.53;;;3.80;;
35150;SDS011;55720;51.972;4.624;2023-06-24T06:28:46;3.67;;;3.25;;
35150;SDS011;55720;51.972;4.624;2023-06-24T06:31:15;5.53;;;3.77;;
35150;SDS011;55720;51.972;4.624;2023-06-24T06:33:40;4.50;;;4.10;;
35150;SDS011;55720;51.972;4.624;2023-06-24T06:36:06;4.85;;;3.80;;
35150;SDS011;55720;51.972;4.624;2023-06-24T06:38:32;3.85;;;3.47;;
35150;SDS011;55720;51.972;4.624;2023-06-24T06:40:58;6.57;;;3.58;;
35150;SDS011;55720;51.972;4.624;2023-06-24T06:43:23;4.43;;;3.58;;
35150;SDS011;55720;51.972;4.624;2023-06-24T06:45:49;4.18;;;3.78;;
35150;SDS011;55720;51.972;4.624;2023-06-24T06:48:14;4.18;;;3.88;;
35150;SDS011;55720;51.972;4.624;2023-06-24T06:50:39;4.45;;;3.72;;
35150;SDS011;55720;51.972;4.624;2023-06-24T06:53:05;4.90;;;3.60;;
35150;SDS011;55720;51.972;4.624;2023-06-24T06:55:30;5.53;;;4.07;;
35150;SDS011;55720;51.972;4.624;2023-06-24T06:57:55;5.88;;;3.95;;
35150;SDS011;55720;51.972;4.624;2023-06-24T07:00:21;4.70;;;3.80;;
35150;SDS011;55720;51.972;4.624;2023-06-24T07:02:46;4.68;;;4.05;;
35150;SDS011;55720;51.972;4.624;2023-06-24T07:05:12;5.43;;;3.90;;
35150;SDS011;55720;51.972;4.624;2023-06-24T07:07:37;5.00;;;3.80;;
35150;SDS011;55720;51.972;4.624;2023-06-24T07:10:03;3.83;;;3.53;;
35150;SDS011;55720;51.972;4.624;2023-06-24T07:12:29;4.30;;;3.90;;
35150;SDS011;55720;51.972;4.624;2023-06-24T07:14:56;4.07;;;3.70;;
35150;SDS011;55720;51.972;4.624;2023-06-24T07:17:21;3.72;;;3.35;;
35150;SDS011;55720;51.972;4.624;2023-06-24T07:19:46;4.20;;;3.80;;
35150;SDS011;55720;51.972;4.624;2023-06-24T07:22:12;3.90;;;3.60;;
35150;SDS011;55720;51.972;4.624;2023-06-24T07:24:38;3.72;;;3.42;;
35150;SDS011;55720;51.972;4.624;2023-06-24T07:27:04;4.07;;;3.67;;
35150;SDS011;55720;51.972;4.624;2023-06-24T07:29:29;3.88;;;3.33;;
35150;SDS011;55720;51.972;4.624;2023-06-24T07:31:54;3.92;;;3.63;;
35150;SDS011;55720;51.972;4.624;2023-06-24T07:34:20;6.43;;;4.47;;
35150;SDS011;55720;51.972;4.624;2023-06-24T07:36:45;4.78;;;4.28;;
35150;SDS011;55720;51.972;4.624;2023-06-24T07:39:11;3.75;;;3.42;;
35150;SDS011;55720;51.972;4.624;2023-06-24T07:41:36;5.55;;;3.75;;
35150;SDS011;55720;51.972;4.624;2023-06-24T07:44:02;4.63;;;4.00;;
35150;SDS011;55720;51.972;4.624;2023-06-24T07:46:27;5.10;;;3.40;;
35150;SDS011;55720;51.972;4.624;2023-06-24T07:48:53;4.32;;;3.92;;
35150;SDS011;55720;51.972;4.624;2023-06-24T07:51:18;3.67;;;3.38;;
35150;SDS011;55720;51.972;4.624;2023-06-24T07:53:44;4.00;;;3.60;;
35150;SDS011;55720;51.972;4.624;2023-06-24T07:56:09;3.78;;;3.47;;
35150;SDS011;55720;51.972;4.624;2023-06-24T07:58:35;4.22;;;3.83;;
35150;SDS011;55720;51.972;4.624;2023-06-24T08:01:03;6.57;;;4.10;;
35150;SDS011;55720;51.972;4.624;2023-06-24T08:03:28;4.40;;;4.00;;
35150;SDS011;55720;51.972;4.624;2023-06-24T08:05:54;4.95;;;3.75;;
35150;SDS011;55720;51.972;4.624;2023-06-24T08:08:19;5.20;;;3.90;;
35150;SDS011;55720;51.972;4.624;2023-06-24T08:10:45;5.78;;;4.25;;
35150;SDS011;55720;51.972;4.624;2023-06-24T08:13:11;3.78;;;3.47;;
35150;SDS011;55720;51.972;4.624;2023-06-24T08:15:36;5.10;;;3.80;;
35150;SDS011;55720;51.972;4.624;2023-06-24T08:18:02;3.72;;;3.42;;
35150;SDS011;55720;51.972;4.624;2023-06-24T08:20:27;3.92;;;3.53;;
35150;SDS011;55720;51.972;4.624;2023-06-24T08:22:53;4.80;;;3.70;;
35150;SDS011;55720;51.972;4.624;2023-06-24T08:25:18;6.30;;;4.25;;
35150;SDS011;55720;51.972;4.624;2023-06-24T08:27:43;5.13;;;4.05;;
35150;SDS011;55720;51.972;4.624;2023-06-24T08:30:11;8.68;;;4.28;;
35150;SDS011;55720;51.972;4.624;2023-06-24T08:32:38;4.57;;;3.75;;
35150;SDS011;55720;51.972;4.624;2023-06-24T08:35:05;5.90;;;4.57;;
35150;SDS011;55720;51.972;4.624;2023-06-24T08:37:31;4.30;;;3.90;;
35150;SDS011;55720;51.972;4.624;2023-06-24T08:39:56;7.28;;;4.22;;
35150;SDS011;55720;51.972;4.624;2023-06-24T08:42:22;5.13;;;4.63;;
35150;SDS011;55720;51.972;4.624;2023-06-24T08:44:48;6.88;;;4.22;;
35150;SDS011;55720;51.972;4.624;2023-06-24T08:47:13;4.68;;;4.28;;
35150;SDS011;55720;51.972;4.624;2023-06-24T08:49:46;7.18;;;4.38;;
35150;SDS011;55720;51.972;4.624;2023-06-24T08:52:17;8.43;;;4.28;;
35150;SDS011;55720;51.972;4.624;2023-06-24T08:54:45;4.70;;;4.22;;
35150;SDS011;55720;51.972;4.624;2023-06-24T08:57:13;7.15;;;4.53;;
35150;SDS011;55720;51.972;4.624;2023-06-24T08:59:40;5.03;;;4.63;;
35150;SDS011;55720;51.972;4.624;2023-06-24T09:02:06;4.05;;;3.63;;
35150;SDS011;55720;51.972;4.624;2023-06-24T09:04:32;4.93;;;4.50;;
35150;SDS011;55720;51.972;4.624;2023-06-24T09:06:57;5.47;;;4.82;;
35150;SDS011;55720;51.972;4.624;2023-06-24T09:09:23;8.85;;;4.95;;
35150;SDS011;55720;51.972;4.624;2023-06-24T09:11:53;6.13;;;4.00;;
35150;SDS011;55720;51.972;4.624;2023-06-24T09:14:21;4.45;;;4.05;;
35150;SDS011;55720;51.972;4.624;2023-06-24T09:16:51;5.28;;;4.63;;
35150;SDS011;55720;51.972;4.624;2023-06-24T09:19:19;4.50;;;4.10;;
35150;SDS011;55720;51.972;4.624;2023-06-24T09:21:49;4.68;;;4.30;;
35150;SDS011;55720;51.972;4.624;2023-06-24T09:24:16;5.25;;;4.32;;
35150;SDS011;55720;51.972;4.624;2023-06-24T09:26:42;5.25;;;3.80;;
35150;SDS011;55720;51.972;4.624;2023-06-24T09:29:10;4.45;;;3.83;;
35150;SDS011;55720;51.972;4.624;2023-06-24T09:31:45;6.03;;;4.13;;
35150;SDS011;55720;51.972;4.624;2023-06-24T09:34:14;4.90;;;4.05;;
35150;SDS011;55720;51.972;4.624;2023-06-24T09:39:10;5.18;;;4.03;;
35150;SDS011;55720;51.972;4.624;2023-06-24T09:41:35;6.85;;;4.32;;
35150;SDS011;55720;51.972;4.624;2023-06-24T09:44:01;7.32;;;4.00;;
35150;SDS011;55720;51.972;4.624;2023-06-24T09:46:28;4.18;;;3.78;;
35150;SDS011;55720;51.972;4.624;2023-06-24T09:48:55;3.97;;;3.58;;
35150;SDS011;55720;51.972;4.624;2023-06-24T09:51:21;4.00;;;3.67;;
35150;SDS011;55720;51.972;4.624;2023-06-24T09:53:48;4.68;;;3.38;;
35150;SDS011;55720;51.972;4.624;2023-06-24T09:56:17;6.38;;;4.18;;
35150;SDS011;55720;51.972;4.624;2023-06-24T09:58:43;5.38;;;3.88;;
35150;SDS011;55720;51.972;4.624;2023-06-24T10:01:10;5.93;;;4.07;;
35150;SDS011;55720;51.972;4.624;2023-06-24T10:03:36;5.03;;;3.97;;
35150;SDS011;55720;51.972;4.624;2023-06-24T10:06:04;4.43;;;4.00;;
35150;SDS011;55720;51.972;4.624;2023-06-24T10:08:31;4.28;;;3.85;;
35150;SDS011;55720;51.972;4.624;2023-06-24T10:10:58;6.28;;;4.47;;
35150;SDS011;55720;51.972;4.624;2023-06-24T10:13:24;4.85;;;4.43;;
35150;SDS011;55720;51.972;4.624;2023-06-24T10:15:51;5.30;;;4.90;;
35150;SDS011;55720;51.972;4.624;2023-06-24T10:21:01;7.15;;;5.30;;
35150;SDS011;55720;51.972;4.624;2023-06-24T10:26:29;5.60;;;4.78;;
35150;SDS011;55720;51.972;4.624;2023-06-24T10:37:00;6.05;;;4.32;;
35150;SDS011;55720;51.972;4.624;2023-06-24T10:42:39;5.45;;;4.95;;
35150;SDS011;55720;51.972;4.624;2023-06-24T10:47:33;5.00;;;4.60;;
35150;SDS011;55720;51.972;4.624;2023-06-24T10:49:59;8.52;;;4.65;;
35150;SDS011;55720;51.972;4.624;2023-06-24T10:52:24;7.78;;;4.75;;
35150;SDS011;55720;51.972;4.624;2023-06-24T10:54:50;7.32;;;4.78;;
35150;SDS011;55720;51.972;4.624;2023-06-24T10:57:20;8.68;;;5.63;;
35150;SDS011;55720;51.972;4.624;2023-06-24T10:59:48;6.35;;;5.32;;
35150;SDS011;55720;51.972;4.624;2023-06-24T11:02:14;6.28;;;5.05;;
35150;SDS011;55720;51.972;4.624;2023-06-24T11:04:44;7.47;;;5.63;;
35150;SDS011;55720;51.972;4.624;2023-06-24T11:07:10;7.88;;;5.38;;
35150;SDS011;55720;51.972;4.624;2023-06-24T11:09:36;4.53;;;4.13;;
35150;SDS011;55720;51.972;4.624;2023-06-24T11:12:02;4.43;;;4.03;;
35150;SDS011;55720;51.972;4.624;2023-06-24T11:14:28;3.75;;;3.45;;
35150;SDS011;55720;51.972;4.624;2023-06-24T11:16:53;4.72;;;4.32;;
35150;SDS011;55720;51.972;4.624;2023-06-24T11:19:19;5.22;;;4.72;;
35150;SDS011;55720;51.972;4.624;2023-06-24T11:21:44;6.50;;;5.20;;
35150;SDS011;55720;51.972;4.624;2023-06-24T11:24:10;6.53;;;4.63;;
35150;SDS011;55720;51.972;4.624;2023-06-24T11:26:36;6.20;;;3.75;;
35150;SDS011;55720;51.972;4.624;2023-06-24T11:29:09;4.38;;;3.97;;
35150;SDS011;55720;51.972;4.624;2023-06-24T11:31:35;3.90;;;3.53;;
35150;SDS011;55720;51.972;4.624;2023-06-24T11:34:00;4.22;;;3.63;;
35150;SDS011;55720;51.972;4.624;2023-06-24T11:36:26;5.63;;;4.57;;
35150;SDS011;55720;51.972;4.624;2023-06-24T11:38:51;6.05;;;5.38;;
35150;SDS011;55720;51.972;4.624;2023-06-24T11:41:16;5.50;;;4.80;;
35150;SDS011;55720;51.972;4.624;2023-06-24T11:43:46;8.07;;;5.38;;
35150;SDS011;55720;51.972;4.624;2023-06-24T11:46:21;10.85;;;6.18;;
35150;SDS011;55720;51.972;4.624;2023-06-24T11:48:49;5.70;;;5.20;;
35150;SDS011;55720;51.972;4.624;2023-06-24T11:51:14;6.07;;;5.38;;
35150;SDS011;55720;51.972;4.624;2023-06-24T11:53:40;5.47;;;4.97;;
35150;SDS011;55720;51.972;4.624;2023-06-24T11:56:08;4.90;;;4.50;;
35150;SDS011;55720;51.972;4.624;2023-06-24T11:58:34;10.80;;;6.43;;
35150;SDS011;55720;51.972;4.624;2023-06-24T12:01:03;9.40;;;5.30;;
35150;SDS011;55720;51.972;4.624;2023-06-24T12:03:32;6.55;;;4.78;;
35150;SDS011;55720;51.972;4.624;2023-06-24T12:05:58;6.88;;;4.30;;
35150;SDS011;55720;51.972;4.624;2023-06-24T12:08:24;5.43;;;4.75;;
35150;SDS011;55720;51.972;4.624;2023-06-24T12:10:49;5.90;;;4.85;;
35150;SDS011;55720;51.972;4.624;2023-06-24T12:13:15;6.85;;;5.18;;
35150;SDS011;55720;51.972;4.624;2023-06-24T12:15:40;7.40;;;5.03;;
35150;SDS011;55720;51.972;4.624;2023-06-24T12:18:06;5.47;;;5.05;;
35150;SDS011;55720;51.972;4.624;2023-06-24T12:20:32;6.15;;;5.50;;
35150;SDS011;55720;51.972;4.624;2023-06-24T12:22:58;7.80;;;5.32;;
35150;SDS011;55720;51.972;4.624;2023-06-24T12:25:23;6.43;;;5.60;;
35150;SDS011;55720;51.972;4.624;2023-06-24T12:27:49;8.32;;;5.60;;
35150;SDS011;55720;51.972;4.624;2023-06-24T12:30:15;5.35;;;4.88;;
35150;SDS011;55720;51.972;4.624;2023-06-24T12:32:41;6.35;;;4.93;;
35150;SDS011;55720;51.972;4.624;2023-06-24T12:35:07;5.45;;;3.70;;
35150;SDS011;55720;51.972;4.624;2023-06-24T12:37:34;4.80;;;3.88;;
35150;SDS011;55720;51.972;4.624;2023-06-24T12:40:00;5.78;;;5.22;;
35150;SDS011;55720;51.972;4.624;2023-06-24T12:42:26;4.88;;;4.38;;
35150;SDS011;55720;51.972;4.624;2023-06-24T12:44:52;6.32;;;4.72;;
35150;SDS011;55720;51.972;4.624;2023-06-24T12:47:17;4.88;;;4.38;;
35150;SDS011;55720;51.972;4.624;2023-06-24T12:49:43;4.75;;;4.25;;
35150;SDS011;55720;51.972;4.624;2023-06-24T12:52:08;4.97;;;4.30;;
35150;SDS011;55720;51.972;4.624;2023-06-24T12:54:34;5.05;;;4.45;;
35150;SDS011;55720;51.972;4.624;2023-06-24T12:57:00;5.30;;;4.28;;
35150;SDS011;55720;51.972;4.624;2023-06-24T12:59:26;6.85;;;4.93;;
35150;SDS011;55720;51.972;4.624;2023-06-24T13:01:53;5.75;;;4.65;;
35150;SDS011;55720;51.972;4.624;2023-06-24T13:04:18;8.25;;;4.45;;
35150;SDS011;55720;51.972;4.624;2023-06-24T13:06:45;5.78;;;4.00;;
35150;SDS011;55720;51.972;4.624;2023-06-24T13:09:11;6.25;;;3.75;;
35150;SDS011;55720;51.972;4.624;2023-06-24T13:11:37;6.88;;;4.85;;
35150;SDS011;55720;51.972;4.624;2023-06-24T13:14:02;7.38;;;4.80;;
35150;SDS011;55720;51.972;4.624;2023-06-24T13:16:28;7.32;;;5.32;;
35150;SDS011;55720;51.972;4.624;2023-06-24T13:18:54;6.38;;;4.40;;
35150;SDS011;55720;51.972;4.624;2023-06-24T13:21:19;5.15;;;4.68;;
35150;SDS011;55720;51.972;4.624;2023-06-24T13:23:45;6.75;;;4.43;;
35150;SDS011;55720;51.972;4.624;2023-06-24T13:26:11;7.47;;;4.95;;
35150;SDS011;55720;51.972;4.624;2023-06-24T13:28:37;5.63;;;4.57;;
35150;SDS011;55720;51.972;4.624;2023-06-24T13:31:02;6.22;;;4.60;;
35150;SDS011;55720;51.972;4.624;2023-06-24T13:33:28;6.97;;;5.07;;
35150;SDS011;55720;51.972;4.624;2023-06-24T13:35:54;7.40;;;5.57;;
35150;SDS011;55720;51.972;4.624;2023-06-24T13:38:21;6.07;;;5.38;;
35150;SDS011;55720;51.972;4.624;2023-06-24T13:40:46;9.00;;;4.55;;
35150;SDS011;55720;51.972;4.624;2023-06-24T13:43:12;5.90;;;4.47;;
35150;SDS011;55720;51.972;4.624;2023-06-24T13:45:37;12.38;;;5.60;;
35150;SDS011;55720;51.972;4.624;2023-06-24T13:48:03;5.57;;;4.00;;
35150;SDS011;55720;51.972;4.624;2023-06-24T13:50:28;5.25;;;4.80;;
35150;SDS011;55720;51.972;4.624;2023-06-24T13:52:54;8.55;;;4.85;;
35150;SDS011;55720;51.972;4.624;2023-06-24T13:55:20;5.85;;;4.38;;
35150;SDS011;55720;51.972;4.624;2023-06-24T13:57:45;4.85;;;4.32;;
35150;SDS011;55720;51.972;4.624;2023-06-24T14:00:11;6.00;;;5.32;;
35150;SDS011;55720;51.972;4.624;2023-06-24T14:02:37;5.60;;;5.10;;
35150;SDS011;55720;51.972;4.624;2023-06-24T14:05:03;6.97;;;5.30;;
35150;SDS011;55720;51.972;4.624;2023-06-24T14:07:28;5.60;;;4.78;;
35150;SDS011;55720;51.972;4.624;2023-06-24T14:09:54;5.88;;;5.28;;
35150;SDS011;55720;51.972;4.624;2023-06-24T14:12:20;6.15;;;5.47;;
35150;SDS011;55720;51.972;4.624;2023-06-24T14:14:45;6.47;;;5.35;;
35150;SDS011;55720;51.972;4.624;2023-06-24T14:17:10;5.05;;;4.55;;
35150;SDS011;55720;51.972;4.624;2023-06-24T14:19:37;5.60;;;4.90;;
35150;SDS011;55720;51.972;4.624;2023-06-24T14:22:03;4.55;;;4.15;;
35150;SDS011;55720;51.972;4.624;2023-06-24T14:24:29;3.97;;;3.67;;
35150;SDS011;55720;51.972;4.624;2023-06-24T14:26:54;5.25;;;4.80;;
35150;SDS011;55720;51.972;4.624;2023-06-24T14:29:20;6.25;;;4.50;;
35150;SDS011;55720;51.972;4.624;2023-06-24T14:31:45;6.15;;;4.18;;
35150;SDS011;55720;51.972;4.624;2023-06-24T14:34:11;4.40;;;4.00;;
35150;SDS011;55720;51.972;4.624;2023-06-24T14:36:36;7.15;;;3.70;;
35150;SDS011;55720;51.972;4.624;2023-06-24T14:39:01;4.22;;;3.83;;
35150;SDS011;55720;51.972;4.624;2023-06-24T14:41:27;4.55;;;4.15;;
35150;SDS011;55720;51.972;4.624;2023-06-24T14:43:52;3.83;;;3.42;;
35150;SDS011;55720;51.972;4.624;2023-06-24T14:46:18;4.60;;;3.85;;
35150;SDS011;55720;51.972;4.624;2023-06-24T14:48:43;4.47;;;3.80;;
35150;SDS011;55720;51.972;4.624;2023-06-24T14:51:08;5.88;;;4.70;;
35150;SDS011;55720;51.972;4.624;2023-06-24T14:53:34;6.32;;;5.65;;
35150;SDS011;55720;51.972;4.624;2023-06-24T14:55:59;5.68;;;5.22;;
35150;SDS011;55720;51.972;4.624;2023-06-24T14:58:25;7.28;;;6.50;;
35150;SDS011;55720;51.972;4.624;2023-06-24T15:00:50;7.13;;;5.30;;
35150;SDS011;55720;51.972;4.624;2023-06-24T15:03:15;6.03;;;5.43;;
35150;SDS011;55720;51.972;4.624;2023-06-24T15:05:41;5.88;;;5.32;;
35150;SDS011;55720;51.972;4.624;2023-06-24T15:08:06;5.78;;;5.28;;
35150;SDS011;55720;51.972;4.624;2023-06-24T15:10:32;6.93;;;5.45;;
35150;SDS011;55720;51.972;4.624;2023-06-24T15:12:57;14.27;;;5.35;;
35150;SDS011;55720;51.972;4.624;2023-06-24T15:15:22;5.93;;;5.43;;
35150;SDS011;55720;51.972;4.624;2023-06-24T15:17:48;7.00;;;5.60;;
35150;SDS011;55720;51.972;4.624;2023-06-24T15:20:13;5.80;;;5.20;;